createdAt,value
2023-05-10T00:01:36.426Z,76.15
2023-05-10T00:04:23.513Z,76.57
2023-05-10T00:07:11.302Z,76.21
2023-05-10T00:09:58.148Z,76.83
2023-05-10T00:12:45.078Z,76.26
2023-05-10T00:15:31.931Z,76.77
2023-05-10T00:18:18.874Z,76.60
2023-05-10T00:21:06.092Z,77.16
2023-05-10T00:23:52.951Z,77.43
2023-05-10T00:26:39.797Z,76.73
2023-05-10T00:29:26.829Z,76.86
2023-05-10T00:32:14.950Z,76.97
2023-05-10T00:35:01.974Z,77.23
2023-05-10T00:37:49.073Z,77.24
2023-05-10T00:40:37.213Z,77.06
2023-05-10T00:43:24.071Z,77.86
2023-05-10T00:46:11.989Z,77.53
2023-05-10T00:48:59.156Z,77.25
2023-05-10T00:51:46.139Z,77.04
2023-05-10T00:54:33.278Z,77.81
2023-05-10T00:57:20.533Z,77.45
2023-05-10T01:00:08.812Z,77.12
2023-05-10T01:02:55.941Z,77.81
2023-05-10T01:05:42.844Z,77.37
2023-05-10T01:08:29.963Z,77.64
2023-05-10T01:11:16.881Z,77.16
2023-05-10T01:14:04.549Z,77.34
2023-05-10T01:16:51.661Z,77.74
2023-05-10T01:19:39.113Z,77.57
2023-05-10T01:23:06.365Z,77.29
2023-05-10T01:26:15.875Z,77.66
2023-05-10T01:29:11.623Z,78.66
2023-05-10T01:32:21.263Z,78.82
2023-05-10T01:35:17.374Z,78.79
2023-05-10T01:38:30.619Z,78.72
2023-05-10T01:41:49.644Z,78.56
2023-05-10T01:44:59.426Z,78.88
2023-05-10T01:47:54.275Z,81.02
2023-05-10T01:50:44.638Z,81.87
2023-05-10T01:53:35.158Z,82.50
2023-05-10T01:56:26.767Z,82.08
2023-05-10T01:59:17.987Z,82.33
2023-05-10T02:02:06.574Z,82.16
2023-05-10T02:04:56.324Z,82.71
2023-05-10T02:07:44.346Z,82.28
2023-05-10T02:10:32.240Z,82.42
2023-05-10T02:13:19.978Z,82.27
2023-05-10T02:16:08.315Z,82.67
2023-05-10T02:18:58.158Z,82.11
2023-05-10T02:21:46.470Z,82.18
2023-05-10T02:24:35.829Z,82.81
2023-05-10T02:27:24.986Z,83.00
2023-05-10T02:30:13.288Z,84.62
2023-05-10T02:33:00.986Z,84.99
2023-05-10T02:35:48.696Z,84.97
2023-05-10T02:38:37.020Z,85.52
2023-05-10T02:41:25.290Z,84.27
2023-05-10T02:44:15.354Z,84.24
2023-05-10T02:47:02.448Z,83.43
2023-05-10T02:49:49.503Z,83.25
2023-05-10T02:52:49.127Z,83.08
2023-05-10T02:55:41.494Z,82.38
2023-05-10T02:58:28.547Z,83.33
2023-05-10T03:01:15.639Z,81.84
2023-05-10T03:04:02.584Z,82.87
2023-05-10T03:06:49.517Z,83.08
2023-05-10T03:09:36.734Z,83.17
2023-05-10T03:14:31.477Z,84.58
2023-05-10T03:17:37.496Z,85.40
2023-05-10T03:20:36.320Z,84.94
2023-05-10T03:23:35.222Z,84.85
2023-05-10T03:26:27.086Z,85.70
2023-05-10T03:29:15.932Z,85.60
2023-05-10T03:32:02.936Z,84.69
2023-05-10T03:34:49.840Z,83.42
2023-05-10T03:37:42.416Z,83.27
2023-05-10T03:40:33.175Z,83.61
2023-05-10T03:43:20.021Z,83.53
2023-05-10T03:46:06.900Z,83.73
2023-05-10T03:48:53.773Z,83.90
2023-05-10T03:51:40.870Z,84.18
2023-05-10T03:54:27.882Z,84.81
2023-05-10T03:57:14.787Z,87.52
2023-05-10T04:00:01.825Z,88.08
2023-05-10T04:02:48.767Z,88.23
2023-05-10T04:05:35.653Z,87.06
2023-05-10T04:08:22.582Z,87.05
2023-05-10T04:11:11.203Z,86.98
2023-05-10T04:13:58.166Z,86.44
2023-05-10T04:16:45.047Z,87.14
2023-05-10T04:19:32.449Z,86.14
2023-05-10T04:22:19.328Z,85.09
2023-05-10T04:25:07.126Z,86.11
2023-05-10T04:27:53.949Z,85.36
2023-05-10T04:30:41.579Z,85.17
2023-05-10T04:33:28.475Z,84.76
2023-05-10T04:36:15.359Z,87.04
2023-05-10T04:39:03.914Z,88.74
2023-05-10T04:41:50.824Z,88.29
2023-05-10T04:44:37.741Z,86.08
2023-05-10T04:47:24.666Z,87.01
2023-05-10T04:50:11.756Z,87.36
2023-05-10T04:52:58.699Z,87.29
2023-05-10T04:55:45.577Z,86.99
2023-05-10T04:58:32.495Z,87.83
2023-05-10T05:01:19.407Z,86.85
2023-05-10T05:04:06.467Z,86.63
2023-05-10T05:06:54.004Z,86.86
2023-05-10T05:09:41.042Z,85.00
2023-05-10T05:12:27.947Z,85.32
2023-05-10T05:15:16.292Z,86.10
2023-05-10T05:18:03.477Z,84.92
2023-05-10T05:20:50.452Z,84.27
2023-05-10T05:23:37.297Z,83.67
2023-05-10T05:26:24.230Z,84.31
2023-05-10T05:29:11.080Z,84.89
2023-05-10T05:31:58.004Z,84.88
2023-05-10T05:34:48.050Z,82.77
2023-05-10T05:37:34.977Z,83.44
2023-05-10T05:40:21.796Z,82.09
2023-05-10T05:43:08.698Z,81.17
2023-05-10T05:45:57.009Z,80.32
2023-05-10T05:48:43.902Z,79.95
2023-05-10T05:51:30.756Z,79.81
2023-05-10T05:54:17.623Z,80.11
2023-05-10T05:57:04.450Z,79.40
2023-05-10T05:59:51.375Z,80.57
2023-05-10T06:02:38.379Z,81.75
2023-05-10T06:05:25.366Z,81.26
2023-05-10T06:08:12.250Z,81.40
2023-05-10T06:10:59.093Z,81.75
2023-05-10T06:13:46.548Z,82.42
2023-05-10T06:16:34.246Z,83.33
2023-05-10T06:19:21.110Z,83.55
2023-05-10T06:22:07.962Z,83.61
2023-05-10T06:24:54.780Z,84.91
2023-05-10T06:27:41.627Z,86.41
2023-05-10T06:30:29.815Z,86.54
2023-05-10T06:33:17.291Z,87.21
2023-05-10T06:36:04.397Z,89.44
2023-05-10T06:38:52.275Z,90.30
2023-05-10T06:41:39.155Z,90.13
2023-05-10T06:44:26.179Z,90.74
2023-05-10T06:47:13.411Z,90.71
2023-05-10T06:50:00.474Z,91.34
2023-05-10T06:52:47.305Z,92.04
2023-05-10T06:55:34.219Z,91.13
2023-05-10T06:58:21.056Z,89.90
2023-05-10T07:01:08.082Z,90.39
2023-05-10T07:03:54.976Z,91.11
2023-05-10T07:06:41.904Z,92.18
2023-05-10T07:09:29.134Z,90.36
2023-05-10T07:12:16.318Z,89.85
2023-05-10T07:15:04.053Z,89.06
2023-05-10T07:17:51.289Z,88.13
2023-05-10T07:20:38.147Z,88.53
2023-05-10T07:23:25.072Z,88.87
2023-05-10T07:26:12.619Z,89.90
2023-05-10T07:28:59.490Z,90.51
2023-05-10T07:31:46.381Z,89.71
2023-05-10T07:34:33.311Z,89.56
2023-05-10T07:37:20.187Z,90.02
2023-05-10T07:40:07.865Z,89.86
2023-05-10T07:42:54.849Z,90.76
2023-05-10T07:45:41.785Z,90.94
2023-05-10T07:48:28.640Z,91.58
2023-05-10T07:51:15.524Z,93.18
2023-05-10T07:54:03.502Z,95.09
2023-05-10T07:56:50.391Z,96.47
2023-05-10T07:59:37.508Z,96.09
2023-05-10T08:02:24.546Z,95.57
2023-05-10T08:05:11.663Z,96.76
2023-05-10T08:07:58.582Z,95.66
2023-05-10T08:10:45.429Z,94.03
2023-05-10T08:13:32.465Z,90.71
2023-05-10T08:16:19.861Z,93.02
2023-05-10T08:19:06.962Z,93.46
2023-05-10T08:21:54.389Z,92.69
2023-05-10T08:24:42.960Z,93.06
2023-05-10T08:27:29.814Z,93.30
2023-05-10T08:30:16.702Z,92.48
2023-05-10T08:33:03.663Z,92.74
2023-05-10T08:35:50.611Z,93.60
2023-05-10T08:38:38.927Z,91.45
2023-05-10T08:41:26.909Z,91.26
2023-05-10T08:44:13.924Z,90.41
2023-05-10T08:47:05.227Z,92.97
2023-05-10T08:49:53.553Z,94.81
2023-05-10T08:52:41.629Z,93.09
2023-05-10T08:55:28.966Z,95.79
2023-05-10T08:58:16.004Z,97.28
2023-05-10T09:01:03.541Z,96.24
2023-05-10T09:03:51.611Z,99.26
2023-05-10T09:06:38.861Z,97.93
2023-05-10T09:09:26.800Z,96.93
2023-05-10T09:12:16.572Z,99.90
2023-05-10T09:15:06.695Z,100.00
2023-05-10T09:17:53.885Z,100.00
2023-05-10T09:20:41.583Z,100.00
2023-05-10T09:23:33.213Z,100.00
2023-05-10T09:26:24.416Z,100.00
2023-05-10T09:29:11.474Z,100.00
2023-05-10T09:31:58.408Z,100.00
2023-05-10T09:34:45.951Z,100.00
2023-05-10T09:37:32.922Z,100.00
2023-05-10T09:40:21.598Z,96.12
2023-05-10T09:43:08.672Z,98.46
2023-05-10T09:45:55.876Z,93.37
2023-05-10T09:48:45.058Z,93.62
2023-05-10T09:51:35.005Z,92.28
2023-05-10T09:54:24.787Z,91.45
2023-05-10T09:57:21.290Z,88.82
2023-05-10T10:00:11.098Z,90.96
2023-05-10T10:02:59.977Z,88.92
2023-05-10T10:05:48.497Z,88.55
2023-05-10T10:08:35.650Z,89.05
2023-05-10T10:11:24.602Z,90.18
2023-05-10T10:14:13.504Z,91.35
2023-05-10T10:19:52.112Z,92.10
2023-05-10T10:22:39.001Z,94.48
2023-05-10T10:25:26.459Z,96.02
2023-05-10T10:28:32.279Z,95.78
2023-05-10T10:31:28.901Z,97.25
2023-05-10T10:34:33.995Z,97.91
2023-05-10T10:37:21.340Z,98.08
2023-05-10T10:40:24.505Z,98.84
2023-05-10T10:43:25.195Z,98.46
2023-05-10T10:46:13.540Z,98.96
2023-05-10T10:49:11.016Z,99.20
2023-05-10T10:52:22.057Z,98.15
2023-05-10T10:55:14.799Z,98.94
2023-05-10T10:58:02.063Z,99.24
2023-05-10T11:00:49.000Z,98.65
2023-05-10T11:03:35.996Z,97.66
2023-05-10T11:06:36.940Z,97.41
2023-05-10T11:09:25.879Z,95.23
2023-05-10T11:12:12.900Z,96.01
2023-05-10T11:15:00.029Z,96.17
2023-05-10T11:17:52.871Z,97.64
2023-05-10T11:20:40.918Z,95.77
2023-05-10T11:23:40.924Z,95.40
2023-05-10T11:26:36.838Z,94.73
2023-05-10T11:29:23.876Z,94.58
2023-05-10T11:32:10.939Z,94.35
2023-05-10T11:34:57.765Z,94.27
2023-05-10T11:37:49.212Z,96.81
2023-05-10T11:40:37.098Z,98.67
2023-05-10T11:43:29.144Z,100.00
2023-05-10T11:46:17.258Z,99.87
2023-05-10T11:49:07.935Z,100.00
2023-05-10T11:52:05.069Z,100.00
2023-05-10T11:54:53.323Z,100.00
2023-05-10T11:57:42.224Z,100.00
2023-05-10T12:00:29.765Z,98.75
2023-05-10T12:03:17.189Z,94.12
2023-05-10T12:06:04.747Z,96.06
2023-05-10T12:08:54.515Z,96.67
2023-05-10T12:11:44.255Z,97.16
2023-05-10T12:14:36.119Z,95.99
2023-05-10T12:17:23.123Z,97.41
2023-05-10T12:20:17.042Z,95.79
2023-05-10T12:23:04.848Z,95.25
2023-05-10T12:25:54.927Z,96.26
2023-05-10T12:28:41.865Z,96.36
2023-05-10T12:31:28.729Z,94.49
2023-05-10T12:34:32.608Z,94.30
2023-05-10T12:37:25.363Z,94.82
2023-05-10T12:40:12.403Z,91.78
2023-05-10T12:42:59.350Z,92.35
2023-05-10T12:45:49.181Z,95.12
2023-05-10T12:48:37.787Z,92.85
2023-05-10T12:51:24.689Z,92.99
2023-05-10T12:54:11.545Z,92.73
2023-05-10T12:56:58.423Z,94.26
2023-05-10T12:59:45.384Z,93.29
2023-05-10T13:02:32.314Z,92.23
2023-05-10T13:05:19.198Z,94.04
2023-05-10T13:08:06.221Z,94.19
2023-05-10T13:10:53.329Z,93.95
2023-05-10T13:13:40.396Z,96.01
2023-05-10T13:16:27.846Z,94.32
2023-05-10T13:19:15.252Z,95.29
2023-05-10T13:22:02.303Z,94.43
2023-05-10T13:24:49.217Z,94.18
2023-05-10T13:27:36.249Z,93.76
2023-05-10T13:30:24.785Z,92.15
2023-05-10T13:33:11.677Z,91.12
2023-05-10T13:35:58.561Z,92.42
2023-05-10T13:38:45.386Z,93.38
2023-05-10T13:41:32.268Z,94.72
2023-05-10T13:44:19.161Z,93.72
2023-05-10T13:47:06.497Z,92.64
2023-05-10T13:49:53.391Z,92.93
2023-05-10T13:52:40.478Z,94.87
2023-05-10T13:55:27.434Z,93.83
2023-05-10T13:58:14.386Z,93.46
2023-05-10T14:01:01.208Z,94.32
2023-05-10T14:03:48.179Z,95.44
2023-05-10T14:06:35.129Z,95.98
2023-05-10T14:09:21.970Z,96.02
2023-05-10T14:12:09.108Z,94.68
2023-05-10T14:14:56.006Z,94.05
2023-05-10T14:17:42.939Z,94.63
2023-05-10T14:20:30.031Z,95.68
2023-05-10T14:23:16.940Z,95.78
2023-05-10T14:26:04.052Z,96.83
2023-05-10T14:28:50.980Z,97.63
2023-05-10T14:31:37.972Z,97.76
2023-05-10T14:34:24.852Z,96.76
2023-05-10T14:37:12.793Z,95.92
2023-05-10T14:39:59.761Z,96.76
2023-05-10T14:42:46.666Z,95.59
2023-05-10T14:45:33.803Z,95.79
2023-05-10T14:48:22.265Z,96.17
2023-05-10T14:51:09.112Z,96.59
2023-05-10T14:53:56.054Z,96.57
2023-05-10T14:56:42.941Z,96.70
2023-05-10T14:59:29.877Z,97.21
2023-05-10T15:02:17.288Z,96.67
2023-05-10T15:05:04.980Z,97.01
2023-05-10T15:07:52.431Z,95.84
2023-05-10T15:10:39.988Z,94.57
2023-05-10T15:13:27.192Z,95.70
2023-05-10T15:16:14.082Z,95.37
2023-05-10T15:19:01.109Z,94.37
2023-05-10T15:21:48.363Z,94.30
2023-05-10T15:24:35.267Z,95.15
2023-05-10T15:27:22.192Z,95.58
2023-05-10T15:30:09.577Z,95.28
2023-05-10T15:32:56.879Z,96.04
2023-05-10T15:35:43.792Z,96.48
2023-05-10T15:38:30.657Z,97.27
2023-05-10T15:41:18.012Z,99.46
2023-05-10T15:44:04.982Z,99.24
2023-05-10T15:46:52.016Z,98.80
2023-05-10T15:49:38.909Z,99.50
2023-05-10T15:52:25.866Z,100.00
2023-05-10T15:55:13.436Z,100.00
2023-05-10T15:58:00.267Z,100.00
2023-05-10T16:00:47.194Z,100.00
2023-05-10T16:03:37.291Z,100.00
2023-05-10T16:06:24.468Z,100.00
2023-05-10T16:09:11.287Z,99.27
2023-05-10T16:11:58.244Z,98.87
2023-05-10T16:14:45.200Z,98.36
2023-05-10T16:17:32.363Z,99.54
2023-05-10T16:20:19.329Z,98.29
2023-05-10T16:23:07.451Z,97.52
2023-05-10T16:25:54.772Z,97.56
2023-05-10T16:28:41.642Z,98.57
2023-05-10T16:31:28.580Z,99.04
2023-05-10T16:34:16.409Z,98.33
2023-05-10T16:37:03.331Z,98.63
2023-05-10T16:39:50.356Z,97.81
2023-05-10T16:42:37.257Z,98.03
2023-05-10T16:45:27.391Z,97.75
2023-05-10T16:48:14.297Z,97.36
2023-05-10T16:51:02.798Z,97.29
2023-05-10T16:53:49.800Z,97.86
2023-05-10T16:56:36.791Z,98.19
2023-05-10T16:59:32.660Z,98.09
2023-05-10T17:02:20.989Z,98.72
2023-05-10T17:05:08.650Z,98.97
2023-05-10T17:07:56.081Z,99.84
2023-05-10T17:10:42.918Z,99.02
2023-05-10T17:13:30.443Z,99.44
2023-05-10T17:16:17.605Z,100.00
2023-05-10T17:19:04.717Z,99.75
2023-05-10T17:21:51.840Z,100.00
2023-05-10T17:24:38.722Z,100.00
2023-05-10T17:27:25.608Z,100.00
2023-05-10T17:30:13.710Z,100.00
2023-05-10T17:33:00.953Z,100.00
2023-05-10T17:35:48.086Z,100.00
2023-05-10T17:38:36.508Z,100.00
2023-05-10T17:41:23.391Z,100.00
2023-05-10T17:44:10.251Z,100.00
2023-05-10T17:46:57.112Z,100.00
2023-05-10T17:49:43.963Z,100.00
2023-05-10T17:52:33.372Z,100.00
2023-05-10T17:55:20.558Z,100.00
2023-05-10T17:58:07.638Z,100.00
2023-05-10T18:00:54.976Z,100.00
2023-05-10T18:03:41.930Z,100.00
2023-05-10T18:06:28.900Z,100.00
2023-05-10T18:09:16.217Z,100.00
2023-05-10T18:12:03.688Z,100.00
2023-05-10T18:14:50.864Z,100.00
2023-05-10T18:17:37.871Z,100.00
2023-05-10T18:20:24.769Z,100.00
2023-05-10T18:23:12.167Z,100.00
2023-05-10T18:25:59.160Z,100.00
2023-05-10T18:28:46.004Z,100.00
2023-05-10T18:31:32.906Z,100.00
2023-05-10T18:34:20.034Z,100.00
2023-05-10T18:37:08.188Z,100.00
2023-05-10T18:39:55.163Z,100.00
2023-05-10T18:42:42.200Z,100.00
2023-05-10T18:45:29.581Z,100.00
2023-05-10T18:48:16.968Z,100.00
2023-05-10T18:51:04.265Z,100.00
2023-05-10T18:53:51.147Z,100.00
2023-05-10T18:56:43.727Z,100.00
2023-05-10T18:59:30.726Z,100.00
2023-05-10T19:02:17.711Z,100.00
2023-05-10T19:05:05.237Z,100.00
2023-05-10T19:07:52.112Z,100.00
2023-05-10T19:10:39.200Z,100.00
2023-05-10T19:13:28.344Z,100.00
2023-05-10T19:16:17.082Z,100.00
2023-05-10T19:19:06.475Z,100.00
2023-05-10T19:21:55.848Z,100.00
2023-05-10T19:24:42.927Z,100.00
2023-05-10T19:27:31.783Z,100.00
2023-05-10T19:30:18.639Z,100.00
2023-05-10T19:33:06.069Z,100.00
2023-05-10T19:35:53.452Z,100.00
2023-05-10T19:38:40.418Z,100.00
2023-05-10T19:41:27.291Z,100.00
2023-05-10T19:44:14.449Z,100.00
2023-05-10T19:47:01.589Z,100.00
2023-05-10T19:49:48.592Z,100.00
2023-05-10T19:52:35.484Z,100.00
2023-05-10T19:55:27.910Z,100.00
2023-05-10T19:58:15.042Z,100.00
2023-05-10T20:01:02.597Z,100.00
2023-05-10T20:03:49.598Z,100.00
2023-05-10T20:06:36.647Z,100.00
2023-05-10T20:09:23.475Z,100.00
2023-05-10T20:12:10.492Z,100.00
2023-05-10T20:14:57.516Z,100.00
2023-05-10T20:17:44.857Z,100.00
2023-05-10T20:20:31.809Z,100.00
2023-05-10T20:23:18.675Z,100.00
2023-05-10T20:26:05.756Z,100.00
2023-05-10T20:28:52.629Z,100.00
2023-05-10T20:31:39.500Z,100.00
2023-05-10T20:34:26.527Z,100.00
2023-05-10T20:37:13.440Z,100.00
2023-05-10T20:40:00.352Z,100.00
2023-05-10T20:42:47.694Z,100.00
2023-05-10T20:45:37.556Z,100.00
2023-05-10T20:48:24.712Z,100.00
2023-05-10T20:51:11.588Z,100.00
2023-05-10T20:53:58.435Z,100.00
2023-05-10T20:56:45.352Z,100.00
2023-05-10T20:59:32.219Z,100.00
2023-05-10T21:02:19.158Z,100.00
2023-05-10T21:05:06.628Z,100.00
2023-05-10T21:07:54.294Z,100.00
2023-05-10T21:10:41.224Z,100.00
2023-05-10T21:13:28.332Z,100.00
2023-05-10T21:16:15.277Z,100.00
2023-05-10T21:19:02.415Z,100.00
2023-05-10T21:21:49.403Z,100.00
2023-05-10T21:24:36.762Z,100.00
2023-05-10T21:27:23.619Z,100.00
2023-05-10T21:30:10.794Z,100.00
2023-05-10T21:32:59.991Z,100.00
2023-05-10T21:35:47.060Z,100.00
2023-05-10T21:38:34.189Z,100.00
2023-05-10T21:41:21.847Z,100.00
2023-05-10T21:44:08.720Z,100.00
2023-05-10T21:46:56.028Z,100.00
2023-05-10T21:49:42.923Z,100.00
2023-05-10T21:52:29.787Z,100.00
2023-05-10T21:55:16.897Z,100.00
2023-05-10T21:58:03.771Z,100.00
2023-05-10T22:00:50.670Z,100.00
2023-05-10T22:03:37.812Z,100.00
2023-05-10T22:06:24.701Z,100.00
2023-05-10T22:09:11.678Z,100.00
2023-05-10T22:11:58.887Z,100.00
2023-05-10T22:14:45.998Z,100.00
2023-05-10T22:17:33.438Z,100.00
2023-05-10T22:20:21.570Z,100.00
2023-05-10T22:23:08.406Z,100.00
2023-05-10T22:26:00.054Z,100.00
2023-05-10T22:28:46.992Z,100.00
2023-05-10T22:31:34.004Z,100.00
2023-05-10T22:34:21.032Z,100.00
2023-05-10T22:37:07.959Z,100.00
2023-05-10T22:39:54.805Z,100.00
2023-05-10T22:42:41.763Z,100.00
2023-05-10T22:45:28.620Z,100.00
2023-05-10T22:48:15.930Z,100.00
2023-05-10T22:51:02.820Z,100.00
2023-05-10T22:53:49.718Z,100.00
2023-05-10T22:56:36.640Z,100.00
2023-05-10T22:59:23.748Z,100.00
2023-05-10T23:02:11.206Z,100.00
2023-05-10T23:04:58.259Z,100.00
2023-05-10T23:07:45.256Z,100.00
2023-05-10T23:10:32.368Z,100.00
2023-05-10T23:13:21.018Z,100.00
2023-05-10T23:16:08.199Z,100.00
2023-05-10T23:18:55.558Z,100.00
2023-05-10T23:21:42.544Z,100.00
2023-05-10T23:24:29.452Z,100.00
2023-05-10T23:27:16.309Z,100.00
2023-05-10T23:30:03.346Z,100.00
2023-05-10T23:32:50.299Z,100.00
2023-05-10T23:35:37.152Z,100.00
2023-05-10T23:38:24.673Z,100.00
2023-05-10T23:41:11.490Z,100.00
2023-05-10T23:43:58.364Z,100.00
2023-05-10T23:46:45.215Z,100.00
2023-05-10T23:49:32.113Z,100.00
2023-05-10T23:55:54.414Z,100.00
2023-05-10T23:58:41.277Z,100.00
